sensor_id;sensor_type;location;lat;lon;timestamp;P1;durP1;ratioP1;P2;durP2;ratioP2
12921;SDS011;6528;48.086;16.282;2023-02-11T00:00:57;3.70;;;3.40;;
12921;SDS011;6528;48.086;16.282;2023-02-11T00:03:24;4.07;;;3.13;;
12921;SDS011;6528;48.086;16.282;2023-02-11T00:06:01;4.33;;;3.93;;
12921;SDS011;6528;48.086;16.282;2023-02-11T00:08:30;2.80;;;2.60;;
12921;SDS011;6528;48.086;16.282;2023-02-11T00:10:57;3.37;;;3.07;;
12921;SDS011;6528;48.086;16.282;2023-02-11T00:13:24;3.20;;;3.00;;
12921;SDS011;6528;48.086;16.282;2023-02-11T00:15:50;3.20;;;3.00;;
12921;SDS011;6528;48.086;16.282;2023-02-11T00:18:17;3.70;;;3.50;;
12921;SDS011;6528;48.086;16.282;2023-02-11T00:20:44;3.77;;;3.47;;
12921;SDS011;6528;48.086;16.282;2023-02-11T00:23:11;3.83;;;3.53;;
12921;SDS011;6528;48.086;16.282;2023-02-11T00:25:39;3.30;;;3.03;;
12921;SDS011;6528;48.086;16.282;2023-02-11T00:28:07;3.60;;;3.30;;
12921;SDS011;6528;48.086;16.282;2023-02-11T00:30:35;3.90;;;3.60;;
12921;SDS011;6528;48.086;16.282;2023-02-11T00:33:02;3.33;;;3.03;;
12921;SDS011;6528;48.086;16.282;2023-02-11T00:35:29;3.73;;;3.47;;
12921;SDS011;6528;48.086;16.282;2023-02-11T00:37:56;3.20;;;2.87;;
12921;SDS011;6528;48.086;16.282;2023-02-11T00:40:23;3.30;;;3.00;;
12921;SDS011;6528;48.086;16.282;2023-02-11T00:42:50;3.70;;;3.43;;
12921;SDS011;6528;48.086;16.282;2023-02-11T00:45:16;8.20;;;3.30;;
12921;SDS011;6528;48.086;16.282;2023-02-11T00:47:45;3.53;;;3.23;;
12921;SDS011;6528;48.086;16.282;2023-02-11T00:50:13;3.80;;;3.50;;
12921;SDS011;6528;48.086;16.282;2023-02-11T00:52:39;3.83;;;3.53;;
12921;SDS011;6528;48.086;16.282;2023-02-11T00:55:06;4.40;;;4.00;;
12921;SDS011;6528;48.086;16.282;2023-02-11T00:57:33;4.47;;;3.83;;
12921;SDS011;6528;48.086;16.282;2023-02-11T01:00:00;3.73;;;3.37;;
12921;SDS011;6528;48.086;16.282;2023-02-11T01:02:26;3.80;;;3.50;;
12921;SDS011;6528;48.086;16.282;2023-02-11T01:04:53;3.60;;;3.30;;
12921;SDS011;6528;48.086;16.282;2023-02-11T01:07:20;3.83;;;3.53;;
12921;SDS011;6528;48.086;16.282;2023-02-11T01:09:47;3.87;;;3.57;;
12921;SDS011;6528;48.086;16.282;2023-02-11T01:12:13;3.70;;;3.40;;
12921;SDS011;6528;48.086;16.282;2023-02-11T01:14:40;4.07;;;3.50;;
12921;SDS011;6528;48.086;16.282;2023-02-11T01:17:07;3.70;;;3.40;;
12921;SDS011;6528;48.086;16.282;2023-02-11T01:19:35;4.47;;;3.37;;
12921;SDS011;6528;48.086;16.282;2023-02-11T01:22:02;3.43;;;3.23;;
12921;SDS011;6528;48.086;16.282;2023-02-11T01:24:30;3.50;;;3.27;;
12921;SDS011;6528;48.086;16.282;2023-02-11T01:26:57;2.90;;;2.70;;
12921;SDS011;6528;48.086;16.282;2023-02-11T01:29:23;3.20;;;3.00;;
12921;SDS011;6528;48.086;16.282;2023-02-11T01:31:50;3.50;;;3.30;;
12921;SDS011;6528;48.086;16.282;2023-02-11T01:34:17;3.60;;;3.30;;
12921;SDS011;6528;48.086;16.282;2023-02-11T01:36:44;3.83;;;3.53;;
12921;SDS011;6528;48.086;16.282;2023-02-11T01:39:11;4.17;;;3.87;;
12921;SDS011;6528;48.086;16.282;2023-02-11T01:41:37;3.50;;;3.20;;
12921;SDS011;6528;48.086;16.282;2023-02-11T01:47:05;3.70;;;3.40;;
12921;SDS011;6528;48.086;16.282;2023-02-11T01:49:32;3.10;;;2.90;;
12921;SDS011;6528;48.086;16.282;2023-02-11T01:52:11;3.83;;;3.53;;
12921;SDS011;6528;48.086;16.282;2023-02-11T01:54:46;3.50;;;3.20;;
12921;SDS011;6528;48.086;16.282;2023-02-11T01:57:35;3.47;;;3.17;;
12921;SDS011;6528;48.086;16.282;2023-02-11T02:00:14;3.80;;;3.30;;
12921;SDS011;6528;48.086;16.282;2023-02-11T02:02:48;3.77;;;3.47;;
12921;SDS011;6528;48.086;16.282;2023-02-11T02:10:30;3.63;;;3.37;;
12921;SDS011;6528;48.086;16.282;2023-02-11T02:13:00;3.40;;;3.10;;
12921;SDS011;6528;48.086;16.282;2023-02-11T02:15:28;3.57;;;3.27;;
12921;SDS011;6528;48.086;16.282;2023-02-11T02:18:00;3.47;;;3.20;;
12921;SDS011;6528;48.086;16.282;2023-02-11T02:23:31;5.43;;;3.33;;
12921;SDS011;6528;48.086;16.282;2023-02-11T02:40:54;4.23;;;3.93;;
12921;SDS011;6528;48.086;16.282;2023-02-11T02:43:26;3.83;;;3.43;;
12921;SDS011;6528;48.086;16.282;2023-02-11T02:45:54;3.63;;;3.40;;
12921;SDS011;6528;48.086;16.282;2023-02-11T02:48:34;3.93;;;3.63;;
12921;SDS011;6528;48.086;16.282;2023-02-11T02:51:11;3.30;;;3.10;;
12921;SDS011;6528;48.086;16.282;2023-02-11T02:54:06;3.40;;;3.10;;
12921;SDS011;6528;48.086;16.282;2023-02-11T03:05:20;3.87;;;3.57;;
12921;SDS011;6528;48.086;16.282;2023-02-11T03:07:47;3.33;;;3.13;;
12921;SDS011;6528;48.086;16.282;2023-02-11T03:10:33;3.30;;;3.00;;
12921;SDS011;6528;48.086;16.282;2023-02-11T03:13:07;3.50;;;3.20;;
12921;SDS011;6528;48.086;16.282;2023-02-11T03:15:40;4.00;;;3.70;;
12921;SDS011;6528;48.086;16.282;2023-02-11T03:18:10;4.03;;;3.73;;
12921;SDS011;6528;48.086;16.282;2023-02-11T03:20:40;4.23;;;3.83;;
12921;SDS011;6528;48.086;16.282;2023-02-11T03:23:11;3.57;;;3.37;;
12921;SDS011;6528;48.086;16.282;2023-02-11T03:25:57;3.30;;;3.10;;
12921;SDS011;6528;48.086;16.282;2023-02-11T03:28:31;3.50;;;3.20;;
12921;SDS011;6528;48.086;16.282;2023-02-11T03:31:09;3.70;;;3.40;;
12921;SDS011;6528;48.086;16.282;2023-02-11T03:33:38;4.10;;;3.73;;
12921;SDS011;6528;48.086;16.282;2023-02-11T03:36:16;3.77;;;3.47;;
12921;SDS011;6528;48.086;16.282;2023-02-11T03:38:50;3.83;;;3.53;;
12921;SDS011;6528;48.086;16.282;2023-02-11T03:41:22;3.80;;;3.50;;
12921;SDS011;6528;48.086;16.282;2023-02-11T03:43:52;3.47;;;3.17;;
12921;SDS011;6528;48.086;16.282;2023-02-11T03:46:23;3.53;;;3.33;;
12921;SDS011;6528;48.086;16.282;2023-02-11T03:48:56;5.70;;;3.40;;
12921;SDS011;6528;48.086;16.282;2023-02-11T03:51:27;3.23;;;2.93;;
12921;SDS011;6528;48.086;16.282;2023-02-11T03:53:57;3.80;;;3.47;;
12921;SDS011;6528;48.086;16.282;2023-02-11T03:56:28;3.90;;;3.60;;
12921;SDS011;6528;48.086;16.282;2023-02-11T03:58:58;3.70;;;3.40;;
12921;SDS011;6528;48.086;16.282;2023-02-11T04:01:25;3.70;;;3.40;;
12921;SDS011;6528;48.086;16.282;2023-02-11T04:03:51;3.17;;;2.97;;
12921;SDS011;6528;48.086;16.282;2023-02-11T04:06:18;3.57;;;3.27;;
12921;SDS011;6528;48.086;16.282;2023-02-11T04:08:45;3.83;;;3.53;;
12921;SDS011;6528;48.086;16.282;2023-02-11T04:11:12;3.87;;;3.57;;
12921;SDS011;6528;48.086;16.282;2023-02-11T04:13:38;7.07;;;4.13;;
12921;SDS011;6528;48.086;16.282;2023-02-11T04:16:05;3.50;;;3.20;;
12921;SDS011;6528;48.086;16.282;2023-02-11T04:18:32;3.80;;;3.50;;
12921;SDS011;6528;48.086;16.282;2023-02-11T04:20:59;3.53;;;3.23;;
12921;SDS011;6528;48.086;16.282;2023-02-11T04:23:25;3.57;;;3.27;;
12921;SDS011;6528;48.086;16.282;2023-02-11T04:25:52;3.37;;;3.17;;
12921;SDS011;6528;48.086;16.282;2023-02-11T04:28:19;3.77;;;3.47;;
12921;SDS011;6528;48.086;16.282;2023-02-11T04:30:47;4.20;;;3.80;;
12921;SDS011;6528;48.086;16.282;2023-02-11T04:33:15;4.10;;;3.80;;
12921;SDS011;6528;48.086;16.282;2023-02-11T04:35:43;3.60;;;3.40;;
12921;SDS011;6528;48.086;16.282;2023-02-11T04:38:10;3.50;;;3.27;;
12921;SDS011;6528;48.086;16.282;2023-02-11T04:40:36;3.67;;;3.37;;
12921;SDS011;6528;48.086;16.282;2023-02-11T04:43:03;3.67;;;3.37;;
12921;SDS011;6528;48.086;16.282;2023-02-11T04:45:30;3.93;;;3.63;;
12921;SDS011;6528;48.086;16.282;2023-02-11T04:47:57;4.00;;;3.70;;
12921;SDS011;6528;48.086;16.282;2023-02-11T04:50:23;4.10;;;3.80;;
12921;SDS011;6528;48.086;16.282;2023-02-11T04:52:50;5.63;;;3.73;;
12921;SDS011;6528;48.086;16.282;2023-02-11T04:55:17;4.37;;;3.30;;
12921;SDS011;6528;48.086;16.282;2023-02-11T04:57:44;3.80;;;3.50;;
12921;SDS011;6528;48.086;16.282;2023-02-11T05:00:10;4.23;;;3.93;;
12921;SDS011;6528;48.086;16.282;2023-02-11T05:02:38;3.83;;;3.50;;
12921;SDS011;6528;48.086;16.282;2023-02-11T05:05:04;3.40;;;3.20;;
12921;SDS011;6528;48.086;16.282;2023-02-11T05:07:31;3.60;;;3.30;;
12921;SDS011;6528;48.086;16.282;2023-02-11T05:09:58;4.30;;;3.97;;
12921;SDS011;6528;48.086;16.282;2023-02-11T05:12:25;4.30;;;3.90;;
12921;SDS011;6528;48.086;16.282;2023-02-11T05:14:51;4.57;;;4.27;;
12921;SDS011;6528;48.086;16.282;2023-02-11T05:17:18;4.30;;;3.90;;
12921;SDS011;6528;48.086;16.282;2023-02-11T05:19:45;3.17;;;2.97;;
12921;SDS011;6528;48.086;16.282;2023-02-11T05:22:12;3.60;;;3.30;;
12921;SDS011;6528;48.086;16.282;2023-02-11T05:24:38;4.40;;;3.90;;
12921;SDS011;6528;48.086;16.282;2023-02-11T05:27:05;3.50;;;3.30;;
12921;SDS011;6528;48.086;16.282;2023-02-11T05:29:32;3.57;;;3.20;;
12921;SDS011;6528;48.086;16.282;2023-02-11T05:31:58;3.83;;;3.53;;
12921;SDS011;6528;48.086;16.282;2023-02-11T05:34:25;3.77;;;3.57;;
12921;SDS011;6528;48.086;16.282;2023-02-11T05:36:52;3.70;;;3.40;;
12921;SDS011;6528;48.086;16.282;2023-02-11T05:39:19;4.20;;;3.63;;
12921;SDS011;6528;48.086;16.282;2023-02-11T05:41:46;3.27;;;3.07;;
12921;SDS011;6528;48.086;16.282;2023-02-11T05:44:13;4.10;;;3.80;;
12921;SDS011;6528;48.086;16.282;2023-02-11T05:46:39;4.30;;;3.90;;
12921;SDS011;6528;48.086;16.282;2023-02-11T05:49:06;4.00;;;3.70;;
12921;SDS011;6528;48.086;16.282;2023-02-11T05:51:33;4.13;;;3.83;;
12921;SDS011;6528;48.086;16.282;2023-02-11T05:54:00;4.23;;;3.93;;
12921;SDS011;6528;48.086;16.282;2023-02-11T05:56:26;3.57;;;3.27;;
12921;SDS011;6528;48.086;16.282;2023-02-11T05:58:53;4.00;;;3.70;;
12921;SDS011;6528;48.086;16.282;2023-02-11T06:01:20;4.43;;;3.83;;
12921;SDS011;6528;48.086;16.282;2023-02-11T06:03:47;5.13;;;4.63;;
12921;SDS011;6528;48.086;16.282;2023-02-11T06:06:15;4.50;;;4.17;;
12921;SDS011;6528;48.086;16.282;2023-02-11T06:08:42;5.40;;;4.23;;
12921;SDS011;6528;48.086;16.282;2023-02-11T06:11:08;4.97;;;4.57;;
12921;SDS011;6528;48.086;16.282;2023-02-11T06:13:35;4.67;;;4.30;;
12921;SDS011;6528;48.086;16.282;2023-02-11T06:16:02;4.40;;;4.00;;
12921;SDS011;6528;48.086;16.282;2023-02-11T06:18:29;5.57;;;4.27;;
12921;SDS011;6528;48.086;16.282;2023-02-11T06:20:55;4.70;;;4.30;;
12921;SDS011;6528;48.086;16.282;2023-02-11T06:23:22;6.20;;;4.07;;
12921;SDS011;6528;48.086;16.282;2023-02-11T06:25:49;5.97;;;5.43;;
12921;SDS011;6528;48.086;16.282;2023-02-11T06:28:17;4.37;;;3.97;;
12921;SDS011;6528;48.086;16.282;2023-02-11T06:30:44;6.93;;;3.90;;
12921;SDS011;6528;48.086;16.282;2023-02-11T06:33:11;4.73;;;4.20;;
12921;SDS011;6528;48.086;16.282;2023-02-11T06:35:38;4.93;;;4.47;;
12921;SDS011;6528;48.086;16.282;2023-02-11T06:38:05;4.53;;;4.17;;
12921;SDS011;6528;48.086;16.282;2023-02-11T06:40:31;4.20;;;3.80;;
12921;SDS011;6528;48.086;16.282;2023-02-11T06:42:58;4.67;;;4.27;;
12921;SDS011;6528;48.086;16.282;2023-02-11T06:45:25;4.87;;;4.47;;
12921;SDS011;6528;48.086;16.282;2023-02-11T06:47:51;4.60;;;3.60;;
12921;SDS011;6528;48.086;16.282;2023-02-11T06:50:18;4.07;;;3.77;;
12921;SDS011;6528;48.086;16.282;2023-02-11T06:52:45;6.90;;;4.97;;
12921;SDS011;6528;48.086;16.282;2023-02-11T06:55:12;4.03;;;3.73;;
12921;SDS011;6528;48.086;16.282;2023-02-11T06:57:39;8.13;;;4.77;;
12921;SDS011;6528;48.086;16.282;2023-02-11T07:00:06;4.40;;;4.00;;
12921;SDS011;6528;48.086;16.282;2023-02-11T07:02:34;6.67;;;4.57;;
12921;SDS011;6528;48.086;16.282;2023-02-11T07:05:01;5.47;;;4.77;;
12921;SDS011;6528;48.086;16.282;2023-02-11T07:07:28;4.30;;;3.90;;
12921;SDS011;6528;48.086;16.282;2023-02-11T07:09:58;4.47;;;4.07;;
12921;SDS011;6528;48.086;16.282;2023-02-11T07:12:25;7.30;;;4.90;;
12921;SDS011;6528;48.086;16.282;2023-02-11T07:14:52;5.80;;;5.17;;
12921;SDS011;6528;48.086;16.282;2023-02-11T07:17:18;4.80;;;3.87;;
12921;SDS011;6528;48.086;16.282;2023-02-11T07:19:45;6.53;;;4.03;;
12921;SDS011;6528;48.086;16.282;2023-02-11T07:22:12;4.87;;;4.53;;
12921;SDS011;6528;48.086;16.282;2023-02-11T07:24:38;4.67;;;4.27;;
12921;SDS011;6528;48.086;16.282;2023-02-11T07:27:05;5.67;;;5.17;;
12921;SDS011;6528;48.086;16.282;2023-02-11T07:29:32;6.47;;;4.40;;
12921;SDS011;6528;48.086;16.282;2023-02-11T07:31:59;5.07;;;4.67;;
12921;SDS011;6528;48.086;16.282;2023-02-11T07:34:26;4.23;;;3.93;;
12921;SDS011;6528;48.086;16.282;2023-02-11T07:36:52;4.77;;;3.70;;
12921;SDS011;6528;48.086;16.282;2023-02-11T07:39:19;3.97;;;3.67;;
12921;SDS011;6528;48.086;16.282;2023-02-11T07:41:47;3.63;;;3.33;;
12921;SDS011;6528;48.086;16.282;2023-02-11T07:44:14;4.07;;;3.57;;
12921;SDS011;6528;48.086;16.282;2023-02-11T07:46:41;9.60;;;5.27;;
12921;SDS011;6528;48.086;16.282;2023-02-11T07:49:10;6.80;;;4.57;;
12921;SDS011;6528;48.086;16.282;2023-02-11T07:51:37;11.80;;;4.20;;
12921;SDS011;6528;48.086;16.282;2023-02-11T07:54:04;4.93;;;4.10;;
12921;SDS011;6528;48.086;16.282;2023-02-11T07:56:31;4.07;;;3.77;;
12921;SDS011;6528;48.086;16.282;2023-02-11T07:58:59;5.10;;;3.97;;
12921;SDS011;6528;48.086;16.282;2023-02-11T08:01:28;9.10;;;4.40;;
12921;SDS011;6528;48.086;16.282;2023-02-11T08:03:56;5.20;;;3.63;;
12921;SDS011;6528;48.086;16.282;2023-02-11T08:06:25;5.20;;;3.50;;
12921;SDS011;6528;48.086;16.282;2023-02-11T08:08:54;6.97;;;4.00;;
12921;SDS011;6528;48.086;16.282;2023-02-11T08:11:22;5.63;;;3.70;;
12921;SDS011;6528;48.086;16.282;2023-02-11T08:13:54;4.03;;;3.63;;
12921;SDS011;6528;48.086;16.282;2023-02-11T08:16:28;4.50;;;4.00;;
12921;SDS011;6528;48.086;16.282;2023-02-11T08:19:00;6.13;;;3.40;;
12921;SDS011;6528;48.086;16.282;2023-02-11T08:21:28;4.00;;;3.60;;
12921;SDS011;6528;48.086;16.282;2023-02-11T08:23:55;5.30;;;4.43;;
12921;SDS011;6528;48.086;16.282;2023-02-11T08:26:24;5.60;;;4.27;;
12921;SDS011;6528;48.086;16.282;2023-02-11T08:28:53;5.47;;;4.27;;
12921;SDS011;6528;48.086;16.282;2023-02-11T08:31:25;5.70;;;4.03;;
12921;SDS011;6528;48.086;16.282;2023-02-11T08:33:58;3.70;;;3.40;;
12921;SDS011;6528;48.086;16.282;2023-02-11T08:36:26;4.10;;;3.70;;
12921;SDS011;6528;48.086;16.282;2023-02-11T08:38:59;4.70;;;3.90;;
12921;SDS011;6528;48.086;16.282;2023-02-11T08:41:45;4.20;;;3.90;;
12921;SDS011;6528;48.086;16.282;2023-02-11T08:44:16;4.73;;;3.60;;
12921;SDS011;6528;48.086;16.282;2023-02-11T08:46:45;5.13;;;3.27;;
12921;SDS011;6528;48.086;16.282;2023-02-11T08:49:12;4.30;;;3.20;;
12921;SDS011;6528;48.086;16.282;2023-02-11T08:51:40;4.33;;;3.50;;
12921;SDS011;6528;48.086;16.282;2023-02-11T08:54:07;5.70;;;3.20;;
12921;SDS011;6528;48.086;16.282;2023-02-11T08:56:35;5.50;;;3.37;;
12921;SDS011;6528;48.086;16.282;2023-02-11T08:59:03;3.20;;;3.00;;
12921;SDS011;6528;48.086;16.282;2023-02-11T09:01:30;3.67;;;3.37;;
12921;SDS011;6528;48.086;16.282;2023-02-11T09:03:57;3.60;;;3.30;;
12921;SDS011;6528;48.086;16.282;2023-02-11T09:06:25;4.63;;;3.10;;
12921;SDS011;6528;48.086;16.282;2023-02-11T09:08:54;5.80;;;3.13;;
12921;SDS011;6528;48.086;16.282;2023-02-11T09:11:25;5.90;;;3.50;;
12921;SDS011;6528;48.086;16.282;2023-02-11T09:13:59;4.20;;;3.80;;
12921;SDS011;6528;48.086;16.282;2023-02-11T09:16:28;4.50;;;3.40;;
12921;SDS011;6528;48.086;16.282;2023-02-11T09:18:57;4.30;;;3.23;;
12921;SDS011;6528;48.086;16.282;2023-02-11T09:21:25;3.60;;;3.30;;
12921;SDS011;6528;48.086;16.282;2023-02-11T09:23:53;3.50;;;3.17;;
12921;SDS011;6528;48.086;16.282;2023-02-11T09:26:21;4.43;;;3.47;;
12921;SDS011;6528;48.086;16.282;2023-02-11T09:28:49;4.97;;;3.00;;
12921;SDS011;6528;48.086;16.282;2023-02-11T09:31:18;3.13;;;2.90;;
12921;SDS011;6528;48.086;16.282;2023-02-11T09:33:47;4.97;;;3.43;;
12921;SDS011;6528;48.086;16.282;2023-02-11T09:36:17;3.70;;;3.30;;
12921;SDS011;6528;48.086;16.282;2023-02-11T09:38:46;3.97;;;3.60;;
12921;SDS011;6528;48.086;16.282;2023-02-11T09:41:22;3.20;;;2.90;;
12921;SDS011;6528;48.086;16.282;2023-02-11T09:43:52;3.40;;;3.00;;
12921;SDS011;6528;48.086;16.282;2023-02-11T09:46:21;3.07;;;2.83;;
12921;SDS011;6528;48.086;16.282;2023-02-11T09:48:49;3.90;;;3.00;;
12921;SDS011;6528;48.086;16.282;2023-02-11T09:51:20;4.03;;;2.70;;
12921;SDS011;6528;48.086;16.282;2023-02-11T09:54:10;3.20;;;3.00;;
12921;SDS011;6528;48.086;16.282;2023-02-11T09:56:47;2.97;;;2.77;;
12921;SDS011;6528;48.086;16.282;2023-02-11T09:59:14;4.20;;;3.20;;
12921;SDS011;6528;48.086;16.282;2023-02-11T10:01:49;3.43;;;3.13;;
12921;SDS011;6528;48.086;16.282;2023-02-11T10:07:47;3.10;;;2.90;;
12921;SDS011;6528;48.086;16.282;2023-02-11T10:10:38;3.13;;;2.87;;
12921;SDS011;6528;48.086;16.282;2023-02-11T10:15:55;3.10;;;2.87;;
12921;SDS011;6528;48.086;16.282;2023-02-11T10:18:52;2.83;;;2.63;;
12921;SDS011;6528;48.086;16.282;2023-02-11T10:24:12;3.00;;;2.80;;
12921;SDS011;6528;48.086;16.282;2023-02-11T10:26:40;3.43;;;3.00;;
12921;SDS011;6528;48.086;16.282;2023-02-11T10:29:25;4.50;;;3.20;;
12921;SDS011;6528;48.086;16.282;2023-02-11T10:32:00;2.90;;;2.70;;
12921;SDS011;6528;48.086;16.282;2023-02-11T10:34:38;3.23;;;2.77;;
12921;SDS011;6528;48.086;16.282;2023-02-11T10:37:08;2.93;;;2.70;;
12921;SDS011;6528;48.086;16.282;2023-02-11T10:39:39;2.90;;;2.70;;
12921;SDS011;6528;48.086;16.282;2023-02-11T10:42:08;3.23;;;2.93;;
12921;SDS011;6528;48.086;16.282;2023-02-11T10:47:20;2.97;;;2.73;;
12921;SDS011;6528;48.086;16.282;2023-02-11T10:49:49;4.30;;;3.20;;
12921;SDS011;6528;48.086;16.282;2023-02-11T10:54:58;2.83;;;2.50;;
12921;SDS011;6528;48.086;16.282;2023-02-11T10:57:32;2.80;;;2.60;;
12921;SDS011;6528;48.086;16.282;2023-02-11T11:02:56;5.03;;;2.60;;
12921;SDS011;6528;48.086;16.282;2023-02-11T11:05:29;2.53;;;2.37;;
12921;SDS011;6528;48.086;16.282;2023-02-11T11:08:03;4.83;;;2.27;;
12921;SDS011;6528;48.086;16.282;2023-02-11T11:10:38;3.07;;;2.87;;
12921;SDS011;6528;48.086;16.282;2023-02-11T11:16:08;2.10;;;2.00;;
12921;SDS011;6528;48.086;16.282;2023-02-11T11:18:43;2.70;;;2.50;;
12921;SDS011;6528;48.086;16.282;2023-02-11T11:21:16;2.50;;;2.30;;
12921;SDS011;6528;48.086;16.282;2023-02-11T11:23:48;2.50;;;2.40;;
12921;SDS011;6528;48.086;16.282;2023-02-11T11:26:26;2.50;;;2.40;;
12921;SDS011;6528;48.086;16.282;2023-02-11T11:29:08;2.60;;;2.40;;
12921;SDS011;6528;48.086;16.282;2023-02-11T11:31:46;3.10;;;2.80;;
12921;SDS011;6528;48.086;16.282;2023-02-11T11:36:48;2.50;;;2.30;;
12921;SDS011;6528;48.086;16.282;2023-02-11T11:39:17;2.80;;;2.60;;
12921;SDS011;6528;48.086;16.282;2023-02-11T11:41:48;2.67;;;2.47;;
12921;SDS011;6528;48.086;16.282;2023-02-11T11:44:35;2.83;;;2.63;;
12921;SDS011;6528;48.086;16.282;2023-02-11T11:55:14;2.27;;;2.17;;
12921;SDS011;6528;48.086;16.282;2023-02-11T11:57:47;2.60;;;2.40;;
12921;SDS011;6528;48.086;16.282;2023-02-11T12:00:19;2.70;;;2.50;;
12921;SDS011;6528;48.086;16.282;2023-02-11T12:05:26;2.30;;;2.20;;
12921;SDS011;6528;48.086;16.282;2023-02-11T12:13:15;2.33;;;2.23;;
12921;SDS011;6528;48.086;16.282;2023-02-11T12:19:01;2.70;;;2.50;;
12921;SDS011;6528;48.086;16.282;2023-02-11T12:21:32;2.97;;;2.70;;
12921;SDS011;6528;48.086;16.282;2023-02-11T12:26:47;2.60;;;2.40;;
12921;SDS011;6528;48.086;16.282;2023-02-11T12:29:19;2.73;;;2.60;;
12921;SDS011;6528;48.086;16.282;2023-02-11T12:37:21;2.27;;;2.07;;
12921;SDS011;6528;48.086;16.282;2023-02-11T12:40:13;2.10;;;2.00;;
12921;SDS011;6528;48.086;16.282;2023-02-11T12:56:20;2.43;;;2.33;;
12921;SDS011;6528;48.086;16.282;2023-02-11T12:58:59;3.10;;;2.13;;
12921;SDS011;6528;48.086;16.282;2023-02-11T13:01:33;2.53;;;2.33;;
12921;SDS011;6528;48.086;16.282;2023-02-11T13:04:12;2.37;;;2.17;;
12921;SDS011;6528;48.086;16.282;2023-02-11T13:06:59;2.40;;;2.20;;
12921;SDS011;6528;48.086;16.282;2023-02-11T13:09:33;2.40;;;2.20;;
12921;SDS011;6528;48.086;16.282;2023-02-11T13:12:04;2.23;;;2.13;;
12921;SDS011;6528;48.086;16.282;2023-02-11T13:14:51;2.43;;;2.27;;
12921;SDS011;6528;48.086;16.282;2023-02-11T13:17:24;2.37;;;2.27;;
12921;SDS011;6528;48.086;16.282;2023-02-11T13:20:01;1.97;;;1.87;;
12921;SDS011;6528;48.086;16.282;2023-02-11T13:22:58;2.37;;;2.17;;
12921;SDS011;6528;48.086;16.282;2023-02-11T13:28:52;2.37;;;2.17;;
12921;SDS011;6528;48.086;16.282;2023-02-11T13:31:27;2.33;;;2.23;;
12921;SDS011;6528;48.086;16.282;2023-02-11T13:33:55;2.60;;;2.40;;
12921;SDS011;6528;48.086;16.282;2023-02-11T13:36:23;2.20;;;2.10;;
12921;SDS011;6528;48.086;16.282;2023-02-11T13:38:53;2.47;;;2.27;;
12921;SDS011;6528;48.086;16.282;2023-02-11T13:41:28;2.60;;;2.40;;
12921;SDS011;6528;48.086;16.282;2023-02-11T13:49:34;2.50;;;2.30;;
12921;SDS011;6528;48.086;16.282;2023-02-11T13:52:27;3.63;;;2.53;;
12921;SDS011;6528;48.086;16.282;2023-02-11T13:55:00;2.33;;;2.13;;
12921;SDS011;6528;48.086;16.282;2023-02-11T13:58:14;2.17;;;2.07;;
12921;SDS011;6528;48.086;16.282;2023-02-11T14:09:08;4.63;;;2.87;;
12921;SDS011;6528;48.086;16.282;2023-02-11T14:11:43;5.03;;;3.90;;
12921;SDS011;6528;48.086;16.282;2023-02-11T14:14:33;3.53;;;3.20;;
12921;SDS011;6528;48.086;16.282;2023-02-11T14:22:12;3.30;;;3.00;;
12921;SDS011;6528;48.086;16.282;2023-02-11T14:24:58;8.07;;;3.97;;
12921;SDS011;6528;48.086;16.282;2023-02-11T14:27:28;6.70;;;4.70;;
12921;SDS011;6528;48.086;16.282;2023-02-11T14:41:23;4.33;;;3.93;;
12921;SDS011;6528;48.086;16.282;2023-02-11T14:43:56;6.67;;;3.63;;
12921;SDS011;6528;48.086;16.282;2023-02-11T14:46:26;5.17;;;4.17;;
12921;SDS011;6528;48.086;16.282;2023-02-11T14:48:57;4.50;;;4.10;;
12921;SDS011;6528;48.086;16.282;2023-02-11T14:51:27;7.23;;;4.00;;
12921;SDS011;6528;48.086;16.282;2023-02-11T14:56:38;4.40;;;4.00;;
12921;SDS011;6528;48.086;16.282;2023-02-11T14:59:12;4.33;;;3.93;;
12921;SDS011;6528;48.086;16.282;2023-02-11T15:01:50;6.03;;;4.50;;
12921;SDS011;6528;48.086;16.282;2023-02-11T15:04:23;4.50;;;4.07;;
12921;SDS011;6528;48.086;16.282;2023-02-11T15:06:52;6.60;;;4.17;;
12921;SDS011;6528;48.086;16.282;2023-02-11T15:09:22;5.33;;;4.03;;
12921;SDS011;6528;48.086;16.282;2023-02-11T15:11:59;4.53;;;4.17;;
12921;SDS011;6528;48.086;16.282;2023-02-11T15:14:27;3.87;;;3.57;;
12921;SDS011;6528;48.086;16.282;2023-02-11T15:17:03;6.97;;;3.10;;
12921;SDS011;6528;48.086;16.282;2023-02-11T15:19:39;10.43;;;3.70;;
12921;SDS011;6528;48.086;16.282;2023-02-11T15:22:29;4.53;;;3.93;;
12921;SDS011;6528;48.086;16.282;2023-02-11T15:27:37;5.20;;;3.27;;
12921;SDS011;6528;48.086;16.282;2023-02-11T15:30:28;4.60;;;3.50;;
12921;SDS011;6528;48.086;16.282;2023-02-11T15:32:58;3.20;;;2.87;;
12921;SDS011;6528;48.086;16.282;2023-02-11T15:35:29;3.90;;;3.50;;
12921;SDS011;6528;48.086;16.282;2023-02-11T15:37:58;4.70;;;4.07;;
12921;SDS011;6528;48.086;16.282;2023-02-11T15:40:26;3.40;;;3.10;;
12921;SDS011;6528;48.086;16.282;2023-02-11T15:43:12;4.40;;;3.70;;
12921;SDS011;6528;48.086;16.282;2023-02-11T15:45:44;3.70;;;3.33;;
12921;SDS011;6528;48.086;16.282;2023-02-11T15:48:22;3.57;;;3.17;;
12921;SDS011;6528;48.086;16.282;2023-02-11T15:50:53;4.70;;;3.83;;
12921;SDS011;6528;48.086;16.282;2023-02-11T15:53:26;3.80;;;3.30;;
12921;SDS011;6528;48.086;16.282;2023-02-11T15:56:16;4.13;;;3.67;;
12921;SDS011;6528;48.086;16.282;2023-02-11T15:58:52;3.20;;;2.90;;
12921;SDS011;6528;48.086;16.282;2023-02-11T16:01:32;3.67;;;3.33;;
12921;SDS011;6528;48.086;16.282;2023-02-11T16:04:01;4.10;;;3.20;;
12921;SDS011;6528;48.086;16.282;2023-02-11T16:06:38;3.90;;;3.40;;
12921;SDS011;6528;48.086;16.282;2023-02-11T16:11:52;3.67;;;3.47;;
12921;SDS011;6528;48.086;16.282;2023-02-11T16:14:22;3.50;;;3.20;;
12921;SDS011;6528;48.086;16.282;2023-02-11T16:16:53;3.83;;;3.20;;
12921;SDS011;6528;48.086;16.282;2023-02-11T16:19:26;3.40;;;3.00;;
12921;SDS011;6528;48.086;16.282;2023-02-11T16:25:45;3.87;;;3.50;;
12921;SDS011;6528;48.086;16.282;2023-02-11T16:28:15;5.27;;;4.47;;
12921;SDS011;6528;48.086;16.282;2023-02-11T16:30:42;4.27;;;3.87;;
12921;SDS011;6528;48.086;16.282;2023-02-11T16:33:09;4.63;;;4.23;;
12921;SDS011;6528;48.086;16.282;2023-02-11T16:35:36;6.63;;;4.30;;
12921;SDS011;6528;48.086;16.282;2023-02-11T16:38:03;3.87;;;3.50;;
12921;SDS011;6528;48.086;16.282;2023-02-11T16:40:30;4.00;;;3.60;;
12921;SDS011;6528;48.086;16.282;2023-02-11T16:42:57;4.07;;;3.67;;
12921;SDS011;6528;48.086;16.282;2023-02-11T16:45:23;4.27;;;3.97;;
12921;SDS011;6528;48.086;16.282;2023-02-11T16:47:50;4.70;;;4.30;;
12921;SDS011;6528;48.086;16.282;2023-02-11T16:50:21;4.73;;;4.23;;
12921;SDS011;6528;48.086;16.282;2023-02-11T16:52:50;4.90;;;4.13;;
12921;SDS011;6528;48.086;16.282;2023-02-11T16:55:17;3.97;;;3.67;;
12921;SDS011;6528;48.086;16.282;2023-02-11T16:57:47;4.33;;;3.70;;
12921;SDS011;6528;48.086;16.282;2023-02-11T17:00:14;4.33;;;3.93;;
12921;SDS011;6528;48.086;16.282;2023-02-11T17:02:41;4.20;;;3.33;;
12921;SDS011;6528;48.086;16.282;2023-02-11T17:05:14;4.23;;;3.60;;
12921;SDS011;6528;48.086;16.282;2023-02-11T17:07:45;4.30;;;3.90;;
12921;SDS011;6528;48.086;16.282;2023-02-11T17:10:13;4.93;;;3.63;;
12921;SDS011;6528;48.086;16.282;2023-02-11T17:12:42;4.20;;;3.80;;
12921;SDS011;6528;48.086;16.282;2023-02-11T17:15:09;4.83;;;3.33;;
12921;SDS011;6528;48.086;16.282;2023-02-11T17:17:36;3.13;;;2.93;;
12921;SDS011;6528;48.086;16.282;2023-02-11T17:20:02;3.70;;;3.43;;
12921;SDS011;6528;48.086;16.282;2023-02-11T17:22:30;4.83;;;3.30;;
12921;SDS011;6528;48.086;16.282;2023-02-11T17:24:57;3.90;;;3.60;;
12921;SDS011;6528;48.086;16.282;2023-02-11T17:27:24;3.90;;;3.57;;
12921;SDS011;6528;48.086;16.282;2023-02-11T17:29:50;3.80;;;3.50;;
12921;SDS011;6528;48.086;16.282;2023-02-11T17:32:17;3.50;;;3.20;;